Time;durP1;ratioP1;P1;durP2;ratioP2;P2;SDS_P1;SDS_P2;PMS_P1;PMS_P2;Temp;Humidity;BMP_temperature;BMP_pressure;BME280_temperature;BME280_humidity;BME280_pressure;Samples;Min_cycle;Max_cycle;Signal;HPM_P1;HPM_P2
2023/02/13 00:01:12;;;;;;;18.70;11.30;;;10.10;56.30;;;;;;5003115;28;20386;-76
2023/02/13 00:03:38;;;;;;;17.63;11.73;;;10.10;56.10;;;;;;5007749;28;20394;-75
2023/02/13 00:06:04;;;;;;;20.02;12.18;;;10.00;57.30;;;;;;5005680;28;20414;-75
2023/02/13 00:08:29;;;;;;;18.23;11.52;;;10.00;57.70;;;;;;5006566;28;20433;-74
2023/02/13 00:10:55;;;;;;;18.90;12.10;;;10.00;57.60;;;;;;5005086;28;20395;-76
2023/02/13 00:13:20;;;;;;;19.60;11.90;;;9.90;58.60;;;;;;5000552;28;20390;-76
2023/02/13 00:15:58;;;;;;;17.77;11.20;;;9.80;58.90;;;;;;5001362;28;20387;-73
2023/02/13 00:18:24;;;;;;;18.23;10.70;;;9.90;59.40;;;;;;5001116;28;20394;-74
2023/02/13 00:21:04;;;;;;;19.10;11.77;;;9.90;58.30;;;;;;5001709;28;20474;-72
2023/02/13 00:23:32;;;;;;;20.10;11.27;;;9.80;58.70;;;;;;4999927;28;20429;-75
2023/02/13 00:25:59;;;;;;;18.00;10.60;;;9.90;58.70;;;;;;5001056;28;20882;-75
2023/02/13 00:28:25;;;;;;;18.17;11.25;;;9.90;59.10;;;;;;5005599;28;20458;-73
2023/02/13 00:30:50;;;;;;;18.92;11.18;;;9.90;58.00;;;;;;5009274;28;20387;-75
2023/02/13 00:33:16;;;;;;;16.27;10.80;;;10.00;58.60;;;;;;5009580;28;20414;-75
2023/02/13 00:35:42;;;;;;;21.00;12.80;;;10.00;57.30;;;;;;5009759;28;20395;-76
2023/02/13 00:38:07;;;;;;;21.50;12.00;;;10.10;57.50;;;;;;5008324;28;20390;-74
2023/02/13 00:40:33;;;;;;;19.70;11.60;;;9.90;57.90;;;;;;5005895;28;20457;-76
2023/02/13 00:42:58;;;;;;;19.70;11.50;;;10.00;57.70;;;;;;4998866;28;20962;-76
2023/02/13 00:45:24;;;;;;;19.37;11.90;;;10.00;57.50;;;;;;4998875;28;20785;-76
2023/02/13 00:47:50;;;;;;;19.10;11.95;;;9.80;59.10;;;;;;4997201;28;20390;-75
2023/02/13 00:50:16;;;;;;;17.10;11.37;;;9.80;59.30;;;;;;4996578;28;20487;-75
2023/02/13 00:52:41;;;;;;;21.70;13.13;;;9.90;59.60;;;;;;4995643;28;20417;-76
2023/02/13 00:55:07;;;;;;;22.20;13.43;;;9.80;59.50;;;;;;4995562;28;20479;-75
2023/02/13 00:57:32;;;;;;;22.38;13.18;;;9.70;61.10;;;;;;4996067;28;20390;-76
2023/02/13 00:59:58;;;;;;;22.38;13.68;;;9.70;62.20;;;;;;4996503;28;20413;-74
2023/02/13 01:02:24;;;;;;;23.60;14.02;;;9.70;60.80;;;;;;4995240;28;20448;-75
2023/02/13 01:04:50;;;;;;;21.80;13.05;;;9.70;61.10;;;;;;4995745;28;20391;-76
2023/02/13 01:07:15;;;;;;;20.65;13.25;;;9.70;60.40;;;;;;4999672;28;20847;-72
2023/02/13 01:09:41;;;;;;;22.63;13.30;;;9.70;61.10;;;;;;5011647;28;20383;-74
2023/02/13 01:12:06;;;;;;;22.20;14.13;;;9.70;60.70;;;;;;5013770;28;20482;-73
2023/02/13 01:14:32;;;;;;;24.10;14.17;;;9.60;61.50;;;;;;5014009;28;20394;-73
2023/02/13 01:16:58;;;;;;;20.73;13.50;;;9.60;62.40;;;;;;5012598;28;20397;-74
2023/02/13 01:19:23;;;;;;;25.87;14.60;;;9.70;61.50;;;;;;5011765;28;20399;-74
2023/02/13 01:21:49;;;;;;;25.67;14.47;;;9.80;60.90;;;;;;5006860;28;20444;-75
2023/02/13 01:24:15;;;;;;;26.37;16.20;;;9.70;61.90;;;;;;5003657;28;20403;-72
2023/02/13 01:26:40;;;;;;;25.97;15.50;;;9.70;61.50;;;;;;5004018;28;20767;-74
2023/02/13 01:29:06;;;;;;;26.10;14.67;;;9.70;61.10;;;;;;5003485;28;20417;-74
2023/02/13 01:31:32;;;;;;;21.83;13.23;;;9.70;61.40;;;;;;5003679;28;20413;-73
2023/02/13 01:33:58;;;;;;;24.73;14.73;;;9.80;59.80;;;;;;5003357;28;20743;-74
2023/02/13 01:36:25;;;;;;;23.60;14.65;;;9.80;59.00;;;;;;5003920;28;20393;-74
2023/02/13 01:38:56;;;;;;;25.98;15.63;;;9.70;61.40;;;;;;4999016;28;20392;-75
2023/02/13 01:41:22;;;;;;;26.10;15.82;;;9.60;62.70;;;;;;4997005;28;20473;-75
2023/02/13 01:43:52;;;;;;;24.05;14.20;;;9.70;61.00;;;;;;4997794;28;20868;-74
2023/02/13 01:46:41;;;;;;;23.13;14.40;;;9.60;62.60;;;;;;4997921;28;20386;-73
2023/02/13 01:49:15;;;;;;;22.83;13.98;;;9.60;62.00;;;;;;4995806;28;20464;-74
2023/02/13 01:51:41;;;;;;;27.38;15.93;;;9.60;61.40;;;;;;4995709;28;20414;-74
2023/02/13 01:54:12;;;;;;;27.50;15.20;;;9.60;60.80;;;;;;4996446;28;20390;-76
2023/02/13 01:56:47;;;;;;;26.02;16.17;;;9.70;61.00;;;;;;4996996;28;20389;-76
2023/02/13 01:59:19;;;;;;;23.88;14.85;;;9.60;61.60;;;;;;4996452;28;20423;-75
2023/02/13 02:01:46;;;;;;;25.80;15.05;;;9.60;62.80;;;;;;4997149;28;20496;-74
2023/02/13 02:04:39;;;;;;;25.48;15.95;;;9.60;62.50;;;;;;5002503;28;20399;-75
2023/02/13 02:07:13;;;;;;;25.08;15.10;;;9.50;62.90;;;;;;5000766;28;20398;-73
2023/02/13 02:09:42;;;;;;;24.10;15.45;;;9.40;63.20;;;;;;5003098;28;20550;-75
2023/02/13 02:12:29;;;;;;;23.52;14.80;;;9.40;63.20;;;;;;5002305;28;20407;-73
2023/02/13 02:14:58;;;;;;;23.10;14.38;;;9.60;61.40;;;;;;5006119;28;20402;-74
2023/02/13 02:17:25;;;;;;;26.88;14.93;;;9.50;62.10;;;;;;5008694;28;20421;-73
2023/02/13 02:20:24;;;;;;;24.40;15.52;;;9.40;62.20;;;;;;5001704;28;20382;-74
2023/02/13 02:23:15;;;;;;;24.47;14.13;;;9.50;61.70;;;;;;4995217;28;20430;-74
2023/02/13 02:25:49;;;;;;;25.45;16.13;;;9.50;61.00;;;;;;4996507;28;20891;-73
2023/02/13 02:28:48;;;;;;;26.10;14.90;;;9.50;63.10;;;;;;4996495;28;20397;-74
2023/02/13 02:32:01;;;;;;;26.13;15.30;;;9.50;62.30;;;;;;4995640;28;20418;-74
2023/02/13 02:34:38;;;;;;;24.15;15.20;;;9.50;62.70;;;;;;4962918;28;20601;-75
2023/02/13 02:37:33;;;;;;;24.13;14.05;;;9.40;63.30;;;;;;4999364;28;20480;-74
2023/02/13 02:40:39;;;;;;;25.10;15.02;;;9.30;63.40;;;;;;4987106;28;20753;-74
2023/02/13 02:43:13;;;;;;;25.13;14.60;;;9.30;63.40;;;;;;4994585;28;20606;-75
2023/02/13 02:45:45;;;;;;;24.20;14.32;;;9.30;65.10;;;;;;4996277;28;20420;-76
2023/02/13 02:51:26;;;;;;;23.15;13.40;;;9.30;64.60;;;;;;4996556;28;20385;-75
2023/02/13 02:57:26;;;;;;;23.58;13.85;;;9.30;64.10;;;;;;4991738;28;20397;-75
2023/02/13 03:08:14;;;;;;;21.80;13.45;;;9.20;64.30;;;;;;4998056;28;20417;-74
2023/02/13 03:13:33;;;;;;;20.95;12.80;;;9.30;65.30;;;;;;4993991;28;20425;-73
2023/02/13 03:25:06;;;;;;;22.57;13.33;;;9.30;64.70;;;;;;4993784;28;20374;-71
2023/02/13 03:31:23;;;;;;;20.90;12.70;;;9.20;65.40;;;;;;5004121;28;20398;-74
2023/02/13 03:33:54;;;;;;;20.27;12.60;;;9.20;65.90;;;;;;5009764;28;20385;-73
2023/02/13 03:39:42;;;;;;;21.50;13.30;;;9.20;65.50;;;;;;5003334;28;20466;-75
2023/02/13 03:42:27;;;;;;;19.33;12.48;;;9.10;66.70;;;;;;4997960;28;20469;-74
2023/02/13 03:47:44;;;;;;;18.92;11.60;;;9.00;68.30;;;;;;4997197;28;20891;-75
2023/02/13 03:50:11;;;;;;;18.90;13.00;;;9.00;67.60;;;;;;4997732;28;20382;-74
2023/02/13 03:52:54;;;;;;;21.42;12.68;;;9.10;67.60;;;;;;4996670;28;20402;-74
2023/02/13 04:01:05;;;;;;;23.10;13.18;;;8.90;69.10;;;;;;4998078;28;20725;-75
2023/02/13 04:03:39;;;;;;;21.25;13.10;;;9.00;67.20;;;;;;4997891;28;20382;-75
2023/02/13 04:06:18;;;;;;;23.25;12.90;;;8.90;69.00;;;;;;4998150;28;20772;-77
2023/02/13 04:08:44;;;;;;;21.90;12.93;;;8.90;70.20;;;;;;4998702;28;20394;-77
2023/02/13 04:11:26;;;;;;;19.87;13.10;;;8.90;70.40;;;;;;4997134;28;20433;-76
2023/02/13 04:14:00;;;;;;;21.83;13.50;;;8.90;69.10;;;;;;4996983;28;20395;-78
2023/02/13 04:16:40;;;;;;;20.60;13.48;;;9.00;68.50;;;;;;4997141;28;20899;-74
2023/02/13 04:19:07;;;;;;;24.92;14.02;;;9.00;67.60;;;;;;4997562;28;20800;-75
2023/02/13 04:21:34;;;;;;;21.38;13.57;;;8.80;69.90;;;;;;4995919;28;20430;-76
2023/02/13 04:24:00;;;;;;;21.33;13.60;;;8.80;70.10;;;;;;4997113;28;20397;-76
2023/02/13 04:26:32;;;;;;;19.88;13.48;;;8.70;72.00;;;;;;5012926;28;20394;-75
2023/02/13 04:28:57;;;;;;;21.80;13.50;;;8.70;71.80;;;;;;4997723;28;20502;-75
2023/02/13 04:31:23;;;;;;;27.60;15.95;;;8.70;71.30;;;;;;4997438;28;20458;-76
2023/02/13 04:33:48;;;;;;;22.90;14.07;;;8.60;71.50;;;;;;4997720;28;20394;-75
2023/02/13 04:36:14;;;;;;;23.80;14.90;;;8.60;73.20;;;;;;4997757;28;20394;-75
2023/02/13 04:38:39;;;;;;;23.63;14.27;;;8.60;73.20;;;;;;4998160;28;20397;-77
2023/02/13 04:41:05;;;;;;;24.87;14.90;;;8.40;74.40;;;;;;4998112;28;20386;-75
2023/02/13 04:43:30;;;;;;;24.97;15.70;;;8.50;75.80;;;;;;4998882;28;20452;-75
2023/02/13 04:45:56;;;;;;;24.27;15.47;;;8.40;74.90;;;;;;4998559;28;20394;-76
2023/02/13 04:48:21;;;;;;;23.67;14.70;;;8.30;76.00;;;;;;5005077;28;20391;-75
2023/02/13 04:50:47;;;;;;;27.17;16.47;;;8.20;77.80;;;;;;5013043;28;20402;-72
2023/02/13 04:53:12;;;;;;;25.13;15.27;;;8.10;78.70;;;;;;5001012;28;20795;-75
2023/02/13 04:55:38;;;;;;;23.63;15.30;;;8.10;80.10;;;;;;4997363;28;20398;-77
2023/02/13 04:58:04;;;;;;;27.80;15.25;;;8.10;81.10;;;;;;4997267;28;20455;-76
2023/02/13 05:00:29;;;;;;;20.75;13.65;;;8.10;81.00;;;;;;4995930;28;20421;-77
2023/02/13 05:03:03;;;;;;;24.50;15.88;;;8.20;78.50;;;;;;4995879;28;20382;-73
2023/02/13 05:05:28;;;;;;;23.98;15.80;;;8.00;80.00;;;;;;4996352;28;20394;-75
2023/02/13 05:07:54;;;;;;;26.15;16.48;;;8.00;80.20;;;;;;4996632;28;20496;-74
2023/02/13 05:10:19;;;;;;;27.00;16.80;;;7.80;81.80;;;;;;4997294;28;20386;-76
2023/02/13 05:12:47;;;;;;;24.48;15.23;;;7.90;84.50;;;;;;4997055;28;20422;-74
2023/02/13 05:15:12;;;;;;;26.70;16.33;;;7.80;83.80;;;;;;4997253;28;20399;-75
2023/02/13 05:17:38;;;;;;;25.73;16.33;;;7.80;84.70;;;;;;4997399;28;20386;-74
2023/02/13 05:20:04;;;;;;;34.13;16.90;;;7.70;86.20;;;;;;4997269;28;20463;-76
2023/02/13 05:25:14;;;;;;;28.88;16.75;;;7.80;86.20;;;;;;4997578;28;20409;-77
2023/02/13 05:27:40;;;;;;;30.70;18.50;;;7.90;83.70;;;;;;4996889;28;20864;-75
2023/02/13 05:30:06;;;;;;;26.13;16.20;;;7.80;84.70;;;;;;4994846;28;20401;-75
2023/02/13 05:32:31;;;;;;;29.38;18.00;;;7.70;86.90;;;;;;4997126;28;20501;-75
2023/02/13 05:34:57;;;;;;;28.40;18.05;;;7.70;88.30;;;;;;4996445;28;20421;-77
2023/02/13 05:37:22;;;;;;;36.22;19.65;;;7.70;87.20;;;;;;4996239;28;20433;-77
2023/02/13 05:39:48;;;;;;;25.87;17.03;;;7.70;87.60;;;;;;4997909;28;20461;-76
2023/02/13 05:42:13;;;;;;;27.93;17.00;;;7.60;87.70;;;;;;4997667;28;20402;-76
2023/02/13 05:44:39;;;;;;;27.50;17.80;;;7.50;89.20;;;;;;5001335;28;20748;-74
2023/02/13 05:47:05;;;;;;;28.73;18.10;;;7.50;89.50;;;;;;5011991;28;20402;-74
2023/02/13 05:49:30;;;;;;;28.53;18.20;;;7.50;90.20;;;;;;5011917;28;20397;-75
2023/02/13 05:51:56;;;;;;;27.83;18.63;;;7.40;90.30;;;;;;5012011;28;20414;-74
2023/02/13 05:54:21;;;;;;;29.17;18.37;;;7.40;92.50;;;;;;5009626;28;20395;-75
2023/02/13 05:56:47;;;;;;;29.70;18.70;;;7.40;92.60;;;;;;4996484;28;20741;-75
2023/02/13 05:59:12;;;;;;;32.43;19.73;;;7.40;92.20;;;;;;4996234;28;20406;-75
2023/02/13 06:01:38;;;;;;;27.30;17.63;;;7.40;91.10;;;;;;4996467;28;20394;-76
2023/02/13 06:04:04;;;;;;;31.20;18.70;;;7.30;90.70;;;;;;4996888;28;20394;-76
2023/02/13 06:06:29;;;;;;;31.77;18.93;;;7.30;90.90;;;;;;4996549;28;20394;-76
2023/02/13 06:08:55;;;;;;;30.50;18.55;;;7.30;91.80;;;;;;4996414;28;20391;-75
2023/02/13 06:11:21;;;;;;;35.00;19.70;;;7.30;92.30;;;;;;4996319;28;20401;-77
2023/02/13 06:13:47;;;;;;;31.70;19.40;;;7.30;92.00;;;;;;4996157;28;20800;-76
2023/02/13 06:16:12;;;;;;;28.30;18.93;;;7.20;91.60;;;;;;4996496;28;20475;-77
2023/02/13 06:18:38;;;;;;;34.70;19.20;;;7.10;92.50;;;;;;4996174;28;20428;-75
2023/02/13 06:21:05;;;;;;;28.45;18.00;;;7.20;93.20;;;;;;4995476;28;20920;-75
2023/02/13 06:23:31;;;;;;;30.55;18.80;;;7.20;93.10;;;;;;4998449;28;20407;-77
2023/02/13 06:26:04;;;;;;;30.60;19.30;;;7.10;93.80;;;;;;5001431;28;20386;-76
2023/02/13 06:28:30;;;;;;;36.70;20.85;;;7.10;93.70;;;;;;5002198;28;20863;-76
2023/02/13 06:30:56;;;;;;;29.33;19.13;;;7.10;95.00;;;;;;5000434;28;20387;-75
2023/02/13 06:33:21;;;;;;;31.03;18.40;;;7.10;94.00;;;;;;4997886;28;20414;-75
2023/02/13 06:35:47;;;;;;;28.20;17.90;;;7.20;93.40;;;;;;4996262;28;20386;-75
2023/02/13 06:38:13;;;;;;;32.63;18.70;;;7.20;93.00;;;;;;4995783;28;20401;-75
2023/02/13 06:40:39;;;;;;;33.23;18.90;;;7.10;93.90;;;;;;4993785;28;20860;-75
2023/02/13 06:43:04;;;;;;;33.15;18.77;;;7.10;94.60;;;;;;4995684;28;20872;-77
2023/02/13 06:45:30;;;;;;;28.53;18.73;;;7.10;94.40;;;;;;4993982;28;20402;-74
2023/02/13 06:47:55;;;;;;;34.10;18.53;;;7.10;93.30;;;;;;4995483;28;20398;-77
2023/02/13 06:50:21;;;;;;;30.87;18.37;;;7.10;95.20;;;;;;4994958;28;20391;-75
2023/02/13 06:52:51;;;;;;;31.10;19.10;;;7.10;96.00;;;;;;4994784;28;20422;-75
2023/02/13 06:55:17;;;;;;;32.05;19.20;;;7.00;96.60;;;;;;5009542;28;20424;-75
2023/02/13 06:57:43;;;;;;;31.73;18.67;;;7.10;95.30;;;;;;4995854;28;20475;-75
2023/02/13 07:00:12;;;;;;;28.75;18.63;;;7.10;95.00;;;;;;4994355;28;20406;-77
2023/02/13 07:02:39;;;;;;;30.48;19.55;;;7.10;96.00;;;;;;5010251;28;20402;-75
2023/02/13 07:05:05;;;;;;;39.25;22.45;;;7.10;95.50;;;;;;4995707;28;20751;-75
2023/02/13 07:07:35;;;;;;;32.58;18.55;;;7.00;95.90;;;;;;4995845;28;20391;-76
2023/02/13 07:10:00;;;;;;;33.53;19.77;;;7.00;97.40;;;;;;4999330;28;20421;-72
2023/02/13 07:12:26;;;;;;;29.98;19.08;;;7.00;97.90;;;;;;5014972;28;20422;-74
2023/02/13 07:14:51;;;;;;;30.23;18.75;;;7.00;95.60;;;;;;5009554;28;20406;-77
2023/02/13 07:17:17;;;;;;;33.08;19.33;;;7.00;96.30;;;;;;4995949;28;20489;-77
2023/02/13 07:19:42;;;;;;;31.33;18.77;;;7.10;96.40;;;;;;5002190;28;20442;-74
2023/02/13 07:22:08;;;;;;;29.55;18.55;;;7.10;95.00;;;;;;5011972;28;20403;-75
2023/02/13 07:24:34;;;;;;;31.13;20.40;;;7.10;95.70;;;;;;5006508;28;20759;-77
2023/02/13 07:27:00;;;;;;;32.40;19.65;;;7.10;93.70;;;;;;4998138;28;20398;-76
2023/02/13 07:29:26;;;;;;;37.97;20.33;;;7.20;94.70;;;;;;5000028;28;20396;-76
2023/02/13 07:31:51;;;;;;;34.30;19.58;;;7.20;93.50;;;;;;4997765;28;20414;-77
2023/02/13 07:34:17;;;;;;;29.95;19.27;;;7.20;92.80;;;;;;4996895;28;20394;-76
2023/02/13 07:36:42;;;;;;;26.75;18.35;;;7.30;92.30;;;;;;4995832;28;20425;-75
2023/02/13 07:39:08;;;;;;;28.55;18.27;;;7.30;90.80;;;;;;5006318;28;20389;-73
2023/02/13 07:41:34;;;;;;;29.42;18.67;;;7.30;90.80;;;;;;5008755;28;20401;-74
2023/02/13 07:43:59;;;;;;;157.15;80.32;;;7.40;89.70;;;;;;5007511;28;20394;-76
2023/02/13 07:46:25;;;;;;;40.60;23.33;;;7.40;89.50;;;;;;4993798;28;20903;-74
2023/02/13 07:48:53;;;;;;;178.13;92.00;;;7.50;89.40;;;;;;4994651;28;20401;-77
2023/02/13 07:51:19;;;;;;;199.98;94.38;;;7.60;91.40;;;;;;4995144;28;20383;-74
2023/02/13 07:53:45;;;;;;;64.13;35.13;;;7.70;90.10;;;;;;4996341;28;20396;-77
2023/02/13 07:56:11;;;;;;;53.70;30.63;;;7.80;89.00;;;;;;4995526;28;20474;-76
2023/02/13 07:58:39;;;;;;;98.87;51.00;;;7.80;87.00;;;;;;4995297;28;20423;-76
2023/02/13 08:01:10;;;;;;;41.00;22.85;;;7.80;86.70;;;;;;4990374;28;20426;-72
2023/02/13 08:03:36;;;;;;;48.55;28.30;;;7.90;82.90;;;;;;4991504;28;20397;-75
2023/02/13 08:06:02;;;;;;;42.77;24.63;;;7.90;82.90;;;;;;4990202;28;20387;-75
2023/02/13 08:08:28;;;;;;;51.25;28.02;;;7.90;82.40;;;;;;5006216;28;20395;-73
2023/02/13 08:13:38;;;;;;;30.75;19.27;;;8.00;80.20;;;;;;4995648;28;20397;-73
2023/02/13 08:16:04;;;;;;;30.05;19.00;;;8.20;77.50;;;;;;4996133;28;20879;-75
2023/02/13 08:18:29;;;;;;;27.92;18.83;;;8.20;76.00;;;;;;4996721;28;20387;-75
2023/02/13 08:20:55;;;;;;;37.20;22.83;;;8.20;75.00;;;;;;4995624;28;20849;-74
2023/02/13 08:23:20;;;;;;;37.15;23.33;;;8.30;74.50;;;;;;4995786;28;20880;-74
2023/02/13 08:25:48;;;;;;;31.17;19.15;;;8.30;74.30;;;;;;4995620;28;20394;-74
2023/02/13 08:28:14;;;;;;;35.45;21.92;;;8.40;72.90;;;;;;4995756;28;20394;-72
2023/02/13 08:30:39;;;;;;;50.58;31.58;;;8.40;72.40;;;;;;4995807;28;20433;-73
2023/02/13 08:33:05;;;;;;;30.40;19.40;;;9.00;70.50;;;;;;4994658;28;20410;-73
2023/02/13 08:35:30;;;;;;;40.42;22.45;;;9.60;58.90;;;;;;4994660;28;20406;-74
2023/02/13 08:37:59;;;;;;;30.00;18.55;;;9.50;58.10;;;;;;4994414;28;20457;-74
2023/02/13 08:40:25;;;;;;;27.33;17.88;;;9.30;59.20;;;;;;4995094;28;20485;-74
2023/02/13 08:42:51;;;;;;;28.50;17.50;;;9.10;61.40;;;;;;4994543;28;20542;-73
2023/02/13 08:45:16;;;;;;;32.00;21.00;;;9.00;62.20;;;;;;4995054;28;20391;-75
2023/02/13 08:47:42;;;;;;;35.20;20.80;;;8.90;63.10;;;;;;4995416;28;20391;-73
2023/02/13 08:50:08;;;;;;;27.87;17.70;;;9.00;63.00;;;;;;4995416;28;20398;-75
2023/02/13 08:52:33;;;;;;;33.93;18.23;;;8.90;62.90;;;;;;4994901;28;20414;-75
2023/02/13 08:54:59;;;;;;;25.50;16.65;;;9.00;62.00;;;;;;4993839;28;20394;-73
2023/02/13 08:57:25;;;;;;;38.00;22.77;;;9.10;61.30;;;;;;4993979;28;20394;-74
2023/02/13 08:59:50;;;;;;;29.53;18.50;;;9.20;60.20;;;;;;4994777;28;20489;-74
2023/02/13 09:02:16;;;;;;;47.67;29.17;;;9.20;59.10;;;;;;4994155;28;20610;-75
2023/02/13 09:04:41;;;;;;;28.70;19.27;;;9.30;60.40;;;;;;4994747;28;20486;-76
2023/02/13 09:07:07;;;;;;;31.50;20.20;;;9.30;59.50;;;;;;4994997;28;20391;-75
2023/02/13 09:09:32;;;;;;;30.40;18.13;;;9.30;58.90;;;;;;4993126;28;20405;-74
2023/02/13 09:11:59;;;;;;;25.07;15.93;;;9.40;56.90;;;;;;4994314;28;20413;-73
2023/02/13 09:14:25;;;;;;;31.73;19.90;;;9.40;58.60;;;;;;4994824;28;20398;-74
2023/02/13 09:16:51;;;;;;;32.67;17.80;;;9.60;58.40;;;;;;5009579;28;20431;-73
2023/02/13 09:19:16;;;;;;;25.77;16.65;;;9.70;56.80;;;;;;4996769;28;20387;-75
2023/02/13 09:21:42;;;;;;;27.63;15.63;;;9.80;55.00;;;;;;4997033;28;20387;-75
2023/02/13 09:24:09;;;;;;;23.47;15.13;;;9.80;53.90;;;;;;4997091;28;20756;-75
2023/02/13 09:26:34;;;;;;;24.60;14.10;;;9.80;53.80;;;;;;4997840;28;20398;-75
2023/02/13 09:29:00;;;;;;;22.65;13.75;;;9.90;52.80;;;;;;4998061;28;20426;-76
2023/02/13 09:31:25;;;;;;;21.98;13.35;;;10.00;50.80;;;;;;4997263;28;20445;-75
2023/02/13 09:33:51;;;;;;;21.00;13.73;;;10.00;50.40;;;;;;4998397;28;20405;-75
2023/02/13 09:36:19;;;;;;;21.17;13.77;;;10.00;50.30;;;;;;4997409;28;20417;-77
2023/02/13 09:38:46;;;;;;;23.80;13.98;;;10.00;48.80;;;;;;4997390;28;20410;-74
2023/02/13 09:41:28;;;;;;;21.13;13.77;;;10.00;50.10;;;;;;4996477;28;20393;-74
2023/02/13 09:43:59;;;;;;;21.58;13.75;;;10.10;49.80;;;;;;4995939;28;20482;-74
2023/02/13 09:46:39;;;;;;;22.35;12.70;;;10.20;49.00;;;;;;4996696;28;20452;-75
2023/02/13 09:49:11;;;;;;;22.67;13.40;;;10.20;48.20;;;;;;4997379;28;20941;-74
2023/02/13 09:51:37;;;;;;;21.67;14.18;;;10.30;48.00;;;;;;4997528;28;20493;-75
2023/02/13 09:54:05;;;;;;;19.63;12.93;;;10.40;46.80;;;;;;4997324;28;20817;-72
2023/02/13 09:57:00;;;;;;;20.05;12.75;;;10.40;45.30;;;;;;4995748;28;20390;-75
2023/02/13 09:59:46;;;;;;;19.73;12.20;;;10.50;45.90;;;;;;4996778;28;20443;-75
2023/02/13 10:02:30;;;;;;;21.52;13.13;;;10.60;44.10;;;;;;4995481;28;20485;-74
2023/02/13 10:04:59;;;;;;;19.55;12.40;;;10.60;44.00;;;;;;4994517;28;20813;-78
2023/02/13 10:07:43;;;;;;;20.35;13.98;;;10.70;44.10;;;;;;4996086;28;20745;-73
2023/02/13 10:10:21;;;;;;;20.83;12.88;;;10.70;42.60;;;;;;4999359;28;20390;-73
2023/02/13 10:13:25;;;;;;;21.73;13.85;;;10.70;42.20;;;;;;4996757;28;20419;-74
2023/02/13 10:16:08;;;;;;;23.17;12.20;;;10.80;42.70;;;;;;4994342;28;20414;-73
2023/02/13 10:18:52;;;;;;;23.38;12.88;;;10.80;41.80;;;;;;4994617;28;20859;-74
2023/02/13 10:21:25;;;;;;;19.67;12.90;;;10.80;41.50;;;;;;4995434;28;20386;-74
2023/02/13 10:24:10;;;;;;;21.73;13.10;;;10.90;41.60;;;;;;4997377;28;20383;-74
2023/02/13 10:26:41;;;;;;;19.50;12.57;;;11.00;39.70;;;;;;4994123;28;20390;-74
2023/02/13 10:32:02;;;;;;;19.35;12.40;;;11.10;39.40;;;;;;4995233;28;20456;-75
2023/02/13 10:34:34;;;;;;;20.13;12.50;;;11.10;38.90;;;;;;4993962;28;20391;-73
2023/02/13 10:36:59;;;;;;;19.73;12.55;;;11.10;38.70;;;;;;4992961;28;20469;-75
2023/02/13 10:39:28;;;;;;;20.85;13.15;;;11.30;38.50;;;;;;4995579;28;20485;-74
2023/02/13 10:42:19;;;;;;;22.38;12.90;;;11.30;38.40;;;;;;4995801;28;20849;-74
2023/02/13 10:45:13;;;;;;;21.77;12.57;;;11.20;38.60;;;;;;4995458;28;20449;-73
2023/02/13 10:47:55;;;;;;;22.05;13.50;;;11.30;37.00;;;;;;4992219;28;20382;-72
2023/02/13 10:50:52;;;;;;;20.05;12.70;;;11.50;36.20;;;;;;4990844;28;20785;-72
2023/02/13 10:53:51;;;;;;;26.23;13.80;;;11.60;36.00;;;;;;4992195;28;20531;-75
2023/02/13 10:56:45;;;;;;;18.70;12.35;;;11.60;36.20;;;;;;4992149;28;20394;-74
2023/02/13 10:59:32;;;;;;;19.95;11.85;;;11.60;35.20;;;;;;4992650;28;20430;-73
2023/02/13 11:02:11;;;;;;;18.45;11.30;;;11.70;36.00;;;;;;4992781;28;20378;-74
2023/02/13 11:04:37;;;;;;;16.70;11.02;;;11.70;35.70;;;;;;4992805;28;20474;-75
2023/02/13 11:07:04;;;;;;;25.02;11.90;;;11.80;35.50;;;;;;4991637;28;20410;-72
2023/02/13 11:09:39;;;;;;;26.20;12.40;;;11.80;35.10;;;;;;4991969;28;20404;-73
2023/02/13 11:12:26;;;;;;;19.20;11.13;;;11.80;35.10;;;;;;4991819;28;20411;-73
2023/02/13 11:15:04;;;;;;;19.85;11.13;;;12.00;34.90;;;;;;4991822;28;20894;-72
2023/02/13 11:17:34;;;;;;;24.13;12.10;;;12.10;32.90;;;;;;5006820;28;20413;-72
2023/02/13 11:20:04;;;;;;;24.52;12.25;;;12.30;32.60;;;;;;4992102;28;20772;-74
2023/02/13 11:22:41;;;;;;;20.13;11.60;;;12.20;33.20;;;;;;4991678;28;20541;-74
2023/02/13 11:25:16;;;;;;;20.10;12.52;;;12.20;33.40;;;;;;4992644;28;20390;-74
2023/02/13 11:27:42;;;;;;;23.02;12.20;;;12.10;32.80;;;;;;4995920;28;20383;-74
2023/02/13 11:30:34;;;;;;;15.60;11.35;;;12.10;32.70;;;;;;4993233;28;20698;-73
2023/02/13 11:33:22;;;;;;;18.52;11.20;;;12.20;32.30;;;;;;4994231;28;20517;-74
2023/02/13 11:35:48;;;;;;;20.70;11.30;;;12.20;32.10;;;;;;4991231;28;20457;-73
2023/02/13 11:38:19;;;;;;;18.27;11.20;;;12.20;31.40;;;;;;4991846;28;20807;-73
2023/02/13 11:40:51;;;;;;;18.85;11.63;;;12.20;32.40;;;;;;4991094;28;20460;-74
2023/02/13 11:43:18;;;;;;;17.40;10.50;;;12.40;31.90;;;;;;4992340;28;20411;-74
2023/02/13 11:45:44;;;;;;;20.67;11.43;;;12.40;31.40;;;;;;4994739;28;20387;-75
2023/02/13 11:48:20;;;;;;;16.95;10.45;;;12.40;30.90;;;;;;5000048;28;20413;-74
2023/02/13 11:50:52;;;;;;;23.48;12.00;;;12.40;31.20;;;;;;5002398;28;20454;-75
2023/02/13 11:53:22;;;;;;;17.25;10.82;;;12.50;30.20;;;;;;4996021;28;20895;-74
2023/02/13 11:56:05;;;;;;;17.92;11.07;;;12.50;30.20;;;;;;4995312;28;20374;-74
2023/02/13 11:58:31;;;;;;;18.40;11.20;;;12.50;30.00;;;;;;4995166;28;20425;-73
2023/02/13 12:01:18;;;;;;;16.10;10.25;;;12.50;30.20;;;;;;4995342;28;20466;-73
2023/02/13 12:03:55;;;;;;;18.88;10.60;;;12.80;29.80;;;;;;4995648;28;20378;-74
2023/02/13 12:06:20;;;;;;;21.20;10.85;;;13.10;29.40;;;;;;4996845;28;20386;-75
2023/02/13 12:08:48;;;;;;;19.60;10.50;;;12.90;28.50;;;;;;4997523;28;20396;-75
2023/02/13 12:11:35;;;;;;;22.23;10.95;;;12.90;28.70;;;;;;4997273;28;20390;-75
2023/02/13 12:14:01;;;;;;;15.00;9.90;;;12.80;28.70;;;;;;4996652;28;20515;-74
2023/02/13 12:16:33;;;;;;;19.85;10.50;;;12.90;28.70;;;;;;4996691;28;20756;-72
2023/02/13 12:19:05;;;;;;;22.38;10.32;;;13.10;28.60;;;;;;4994867;28;20409;-74
2023/02/13 12:21:54;;;;;;;20.60;10.20;;;12.90;28.00;;;;;;4997608;28;20452;-73
2023/02/13 12:24:40;;;;;;;16.52;10.23;;;12.90;28.60;;;;;;5010580;28;20390;-75
2023/02/13 12:27:14;;;;;;;15.88;9.80;;;13.00;28.50;;;;;;4996031;28;20385;-75
2023/02/13 12:29:57;;;;;;;24.15;10.40;;;12.90;27.90;;;;;;4994783;28;20417;-73
2023/02/13 12:32:38;;;;;;;14.53;9.03;;;13.10;28.00;;;;;;4994697;28;20410;-74
2023/02/13 12:35:18;;;;;;;14.02;9.48;;;13.10;27.20;;;;;;4994579;28;20398;-76
2023/02/13 12:38:06;;;;;;;15.18;9.23;;;13.20;27.10;;;;;;4995005;28;20422;-75
2023/02/13 12:40:44;;;;;;;15.63;9.80;;;13.20;26.40;;;;;;4995716;28;20402;-75
2023/02/13 12:43:21;;;;;;;13.73;8.77;;;13.10;26.80;;;;;;4995230;28;20390;-74
2023/02/13 12:46:15;;;;;;;16.60;9.43;;;13.30;26.90;;;;;;4994563;28;20393;-75
2023/02/13 12:49:13;;;;;;;18.60;9.48;;;13.50;27.40;;;;;;4994166;28;20400;-74
2023/02/13 12:52:00;;;;;;;14.38;9.80;;;13.70;26.30;;;;;;4993959;28;20375;-73
2023/02/13 12:55:12;;;;;;;16.67;8.27;;;13.60;25.70;;;;;;4992644;28;20410;-73
2023/02/13 12:57:56;;;;;;;14.40;8.40;;;13.70;24.90;;;;;;4993868;28;20393;-74
2023/02/13 13:00:37;;;;;;;14.50;8.20;;;13.60;24.80;;;;;;4994061;28;20468;-74
2023/02/13 13:03:17;;;;;;;14.50;8.40;;;13.50;25.70;;;;;;4993884;28;20778;-74
2023/02/13 13:06:01;;;;;;;19.88;9.48;;;13.50;25.70;;;;;;4994815;28;20425;-74
2023/02/13 13:08:42;;;;;;;13.60;8.00;;;13.60;25.00;;;;;;4992906;28;20449;-74
2023/02/13 13:11:10;;;;;;;11.95;7.20;;;13.60;24.70;;;;;;4993739;28;20382;-75
2023/02/13 13:14:19;;;;;;;12.90;7.85;;;13.60;24.30;;;;;;4993912;28;20490;-73
2023/02/13 13:17:09;;;;;;;11.10;7.55;;;13.70;25.20;;;;;;4989245;28;20585;-73
2023/02/13 13:20:16;;;;;;;14.32;7.90;;;13.90;23.60;;;;;;4993587;28;20379;-74
2023/02/13 13:22:52;;;;;;;10.98;7.28;;;13.90;23.50;;;;;;4992345;28;20431;-74
2023/02/13 13:25:30;;;;;;;12.85;7.85;;;13.80;23.40;;;;;;4993482;28;20395;-73
2023/02/13 13:28:01;;;;;;;14.80;8.30;;;13.80;23.30;;;;;;4993455;28;20390;-72
2023/02/13 13:30:32;;;;;;;11.48;7.95;;;13.80;23.40;;;;;;4993760;28;20775;-74
2023/02/13 13:33:20;;;;;;;16.55;8.75;;;13.80;23.70;;;;;;4993311;28;20415;-74
2023/02/13 13:36:13;;;;;;;17.73;7.78;;;13.70;23.60;;;;;;4993679;28;20390;-73
2023/02/13 13:38:50;;;;;;;14.90;7.80;;;13.90;23.50;;;;;;4993728;28;22200;-72
2023/02/13 13:41:42;;;;;;;16.27;8.40;;;14.00;23.40;;;;;;4992747;28;20387;-74
2023/02/13 13:44:31;;;;;;;13.85;7.80;;;14.00;22.70;;;;;;4993459;28;20436;-72
2023/02/13 13:46:57;;;;;;;20.95;8.57;;;14.10;23.10;;;;;;4992525;28;20386;-73